ETSN 192320Z 26003KT 9999 FEW080 SCT160 BKN320 16/14 Q1023 RESHRA BLU+ ETSN 192220Z 06004KT 9000 SHRA SCT050CB BKN090 18/14 Q1024 BLU ETSN 192120Z 35008KT 9999 FEW080 BKN120 BKN240 20/12 Q1024 BLU ETSN 192020Z 28008KT 9999 FEW080 SCT130 BKN240 23/12 Q1022 RETS BLU+ ETSN 191920Z 28005KT 9999 VCTS VCSH FEW060CB SCT080 BKN120 25/12 Q1020 BLU ETSN 191901Z 26005KT 9999 VCTS FEW060CB SCT120 BKN180 25/12 Q1021 BLU ETSN 191820Z 26003KT 9999 FEW060 SCT080 BKN200 26/16 Q1020 BLU+ ETSN 191720Z 23002KT 9999 FEW060CB SCT240 BKN300 28/15 Q1020 BLU+ ETSN 191620Z VRB03KT 9999 FEW060 BKN320 29/14 Q1020 BLU+ ETSN 191520Z 20004KT 9999 FEW060 BKN320 29/13 Q1020 BLU+ ETSN 191500Z 27004KT 9999 FEW060 BKN320 29/13 Q1020 BLU+FCST CANCEL ETSN 191420Z 13002KT 9999 FEW055 BKN340 28/14 Q1020 BLU+BLU+ ETSN 191320Z VRB03KT 9999 FEW055 BKN340 28/14 Q1021 BLU+BLU+ ETSN 191220Z 16002KT 9999 FEW050 BKN340 27/13 Q1021 BLU+BLU+ ETSN 191120Z 20003KT 9999 BKN340 25/13 Q1022 BLU+BLU+ ETSN 191020Z 11003KT 9999 BKN350 23/11 Q1022 BLU+BLU+ ETSN 190920Z VRB02KT 9999 BKN350 20/09 Q1023 BLU+BLU+ ETSN 190820Z 12003KT 9999 SCT320 18/08 Q1023 BLU+BLU+ ETSN 190720Z 10004KT 9999 FEW320 BKN380 16/07 Q1023 BLU+BLU+ ETSN 190620Z 09005KT 9999 BKN380 15/06 Q1023 BLU+BLU+ ETSN 190520Z 06002KT 9999 BKN360 13/07 Q1023 BLU+ ETSN 190420Z 04003KT 9999 BKN350 10/06 Q1023 BLU+ ETSN 190320Z 03003KT 9999 BKN340 10/06 Q1023 BLU+ ETSN 190220Z 02003KT 9999 BKN350 11/06 Q1023 BLU+ ETSN 190120Z 04004KT 9999 BKN360 12/06 Q1023 BLU+ ETSN 190020Z 04004KT 9999 FEW360 12/07 Q1023 BLU+ ETSN 182320Z 05004KT 9999 FEW350 14/08 Q1023 BLU+ ETSN 182220Z 05004KT 9999 FEW310 15/08 Q1023 BLU+ ETSN 182120Z 06003KT 9999 FEW310 SCT350 15/09 Q1024 BLU+ ETSN 182020Z 09005KT 9999 SCT360 18/09 Q1023 BLU+ ETSN 181920Z 08004KT 9999 SCT360 20/09 Q1023 BLU+ ETSN 181820Z 09006KT 9999 SCT360 22/09 Q1023 BLU+ ETSN 181720Z 09008KT 9999 SCT360 23/10 Q1023 BLU+ ETSN 181620Z 09008KT 9999 FEW050 24/11 Q1023 BLU+ ETSN 181520Z 07008KT 9999 FEW050 SCT360 25/12 Q1023 BLU+ ETSN 181500Z 09009KT 9999 FEW050 SCT360 25/11 Q1023 BLU+FCST CNL ETSN 181420Z 08009KT 9999 FEW050 SCT360 25/12 Q1023 BLU+BLU+ ETSN 181320Z 08006KT 9999 FEW055 SCT350 24/11 Q1023 BLU+BLU+

METAR Messwerte "NEUBURG/DONAU" ETSN

Zurück zur Übersicht

Ortsname
Ländercode / m ü. NN
Zeit Temperatur Taupunkt Rel.
Luftfeuchte
Luftdruck:
Altimeter
NN
Station
Wind in Beaufort
(Knoten)
Sichtweite
(Meter)
Wolken
(Meter über Grund)
Wettererscheinung
NEUBURG/DONAU
DE 378
Fr 20.05. 01:20161488 %1023
1023
978
W 2 (3)>= 10000Stark bewölkt (9800)
Wolkig (4900)
Leicht bewölkt (2400)
 
NEUBURG/DONAU
DE 378
Fr 20.05. 00:20181477 %1024
1024
979
ONO 2 (4)9000Stark bewölkt (2700)
Wolkig Cb (1500)
Regen-Schauer
NEUBURG/DONAU
DE 378
Do 19.05. 23:20201260 %1024
1023
979
N 3 (8)>= 10000Stark bewölkt (7300)
Stark bewölkt (3700)
Leicht bewölkt (2400)
 
NEUBURG/DONAU
DE 378
Do 19.05. 22:20231250 %1022
1021
977
W 3 (8)>= 10000Stark bewölkt (7300)
Wolkig (4000)
Leicht bewölkt (2400)
 
NEUBURG/DONAU
DE 378
Do 19.05. 21:20251244 %1020
1019
975
W 2 (5)>= 10000Stark bewölkt (3700)
Wolkig (2400)
Leicht bewölkt Cb (1800)
 
NEUBURG/DONAU
DE 378
Do 19.05. 21:01251244 %1021
1020
976
W 2 (5)>= 10000Stark bewölkt (5500)
Wolkig (3700)
Leicht bewölkt Cb (1800)
 
NEUBURG/DONAU
DE 378
Do 19.05. 20:20261654 %1020
1018
975
W 2 (3)>= 10000Stark bewölkt (6100)
Wolkig (2400)
Leicht bewölkt (1800)
 
NEUBURG/DONAU
DE 378
Do 19.05. 19:20281545 %1020
1018
975
SW 1 (2)>= 10000Stark bewölkt (9100)
Wolkig (7300)
Leicht bewölkt Cb (1800)
 
NEUBURG/DONAU
DE 378
Do 19.05. 18:20291440 %1020
1018
975
Uml 2 (3)>= 10000Stark bewölkt (9800)
Leicht bewölkt (1800)
 
NEUBURG/DONAU
DE 378
Do 19.05. 17:20291337 %1020
1018
975
SSW 2 (4)>= 10000Stark bewölkt (9800)
Leicht bewölkt (1800)
 
NEUBURG/DONAU
DE 378
Do 19.05. 17:00291337 %1020
1018
975
W 2 (4)>= 10000Stark bewölkt (9800)
Leicht bewölkt (1800)
 
NEUBURG/DONAU
DE 378
Do 19.05. 16:20281442 %1020
1018
975
SO 1 (2)>= 10000Stark bewölkt (10000)
Leicht bewölkt (1700)
 
NEUBURG/DONAU
DE 378
Do 19.05. 15:20281442 %1021
1019
976
Uml 2 (3)>= 10000Stark bewölkt (10000)
Leicht bewölkt (1700)
 
NEUBURG/DONAU
DE 378
Do 19.05. 14:20271342 %1021
1019
976
SSO 1 (2)>= 10000Stark bewölkt (10000)
Leicht bewölkt (1500)
 
NEUBURG/DONAU
DE 378
Do 19.05. 13:20251347 %1022
1021
977
SSW 2 (3)>= 10000Stark bewölkt (10000) 
NEUBURG/DONAU
DE 378
Do 19.05. 12:20231147 %1022
1021
977
OSO 2 (3)>= 10000Stark bewölkt (11000) 
NEUBURG/DONAU
DE 378
Do 19.05. 11:2020949 %1023
1022
978
Uml 1 (2)>= 10000Stark bewölkt (11000) 
NEUBURG/DONAU
DE 378
Do 19.05. 10:2018852 %1023
1023
978
OSO 2 (3)>= 10000Wolkig (9800) 
NEUBURG/DONAU
DE 378
Do 19.05. 09:2016755 %1023
1023
978
O 2 (4)>= 10000Stark bewölkt (12000)
Leicht bewölkt (9800)
 
NEUBURG/DONAU
DE 378
Do 19.05. 08:2015655 %1023
1023
978
O 2 (5)>= 10000Stark bewölkt (12000) 
NEUBURG/DONAU
DE 378
Do 19.05. 07:2013767 %1023
1023
978
ONO 1 (2)>= 10000Stark bewölkt (11000) 
NEUBURG/DONAU
DE 378
Do 19.05. 06:2010676 %1023
1024
978
NO 2 (3)>= 10000Stark bewölkt (11000) 
NEUBURG/DONAU
DE 378
Do 19.05. 05:2010676 %1023
1024
978
NNO 2 (3)>= 10000Stark bewölkt (10000) 
NEUBURG/DONAU
DE 378
Do 19.05. 04:2011671 %1023
1024
978
NNO 2 (3)>= 10000Stark bewölkt (11000) 
NEUBURG/DONAU
DE 378
Do 19.05. 03:2012667 %1023
1024
978
NO 2 (4)>= 10000Stark bewölkt (11000) 
NEUBURG/DONAU
DE 378
Do 19.05. 02:2012771 %1023
1024
978
NO 2 (4)>= 10000Leicht bewölkt (11000) 
NEUBURG/DONAU
DE 378
Do 19.05. 01:2014867 %1023
1023
978
NO 2 (4)>= 10000Leicht bewölkt (11000) 
NEUBURG/DONAU
DE 378
Do 19.05. 00:2015863 %1023
1023
978
NO 2 (4)>= 10000Leicht bewölkt (9400) 
NEUBURG/DONAU
DE 378
Mi 18.05. 23:2015967 %1024
1024
979
ONO 2 (3)>= 10000Wolkig (11000)
Leicht bewölkt (9400)
 
NEUBURG/DONAU
DE 378
Mi 18.05. 22:2018956 %1023
1023
978
O 2 (5)>= 10000Wolkig (11000) 
NEUBURG/DONAU
DE 378
Mi 18.05. 21:2020949 %1023
1022
978
O 2 (4)>= 10000Wolkig (11000) 
NEUBURG/DONAU
DE 378
Mi 18.05. 20:2022943 %1023
1022
978
O 2 (6)>= 10000Wolkig (11000) 
NEUBURG/DONAU
DE 378
Mi 18.05. 19:20231044 %1023
1022
978
O 3 (8)>= 10000Wolkig (11000) 
NEUBURG/DONAU
DE 378
Mi 18.05. 18:20241144 %1023
1022
978
O 3 (8)>= 10000Leicht bewölkt (1500) 
NEUBURG/DONAU
DE 378
Mi 18.05. 17:20251244 %1023
1022
978
ONO 3 (8)>= 10000Wolkig (11000)
Leicht bewölkt (1500)
 
NEUBURG/DONAU
DE 378
Mi 18.05. 17:00251141 %1023
1022
978
O 3 (9)>= 10000Wolkig (11000)
Leicht bewölkt (1500)
 
NEUBURG/DONAU
DE 378
Mi 18.05. 16:20251244 %1023
1022
978
O 3 (9)>= 10000Wolkig (11000)
Leicht bewölkt (1500)
 
NEUBURG/DONAU
DE 378
Mi 18.05. 15:20241144 %1023
1022
978
O 2 (6)>= 10000Wolkig (11000)
Leicht bewölkt (1700)
 

Altimeter: Einstellung am Altimeter (Höhenmesser), die Höhe 0 muss auf diesen Luftdruckwert zeigen, damit das Gerät die Stationshöhe richtig anzeigt.

NN: Luftdruck reduziert auf "Normal Null", auf Meereshöhe, dieser von der Temperatur abhängige Wert wird bisweilen unkorrekt einfach als "Luftdruck" bezeichnet. Eigentlich nur eine fiktive Größe, die es erlaubt, Stationen auf unterschiedlichen Höhen miteinander zu vergleichen.

Station: Realer Luftdruck an der Station.